createdAt,value
2018-12-04T00:00:41.742Z,956.20
2018-12-04T00:01:41.640Z,956.14
2018-12-04T00:02:41.575Z,956.21
2018-12-04T00:03:41.515Z,956.28
2018-12-04T00:04:41.458Z,956.21
2018-12-04T00:05:41.386Z,956.30
2018-12-04T00:06:41.321Z,956.36
2018-12-04T00:07:41.256Z,956.30
2018-12-04T00:08:41.192Z,956.38
2018-12-04T00:09:41.131Z,956.40
2018-12-04T00:10:41.067Z,956.39
2018-12-04T00:11:41.021Z,956.40
2018-12-04T00:12:40.938Z,956.46
2018-12-04T00:13:40.871Z,956.48
2018-12-04T00:14:40.821Z,956.47
2018-12-04T00:15:40.786Z,956.49
2018-12-04T00:16:40.680Z,956.55
2018-12-04T00:17:40.615Z,956.53
2018-12-04T00:18:40.563Z,956.55
2018-12-04T00:19:40.487Z,956.54
2018-12-04T00:20:40.423Z,956.49
2018-12-04T00:21:40.361Z,956.50
2018-12-04T00:22:40.297Z,956.53
2018-12-04T00:23:40.230Z,956.45
2018-12-04T00:24:40.189Z,956.53
2018-12-04T00:25:40.101Z,956.55
2018-12-04T00:26:40.040Z,956.52
2018-12-04T00:27:39.974Z,956.53
2018-12-04T00:28:39.960Z,956.55
2018-12-04T00:29:39.846Z,956.48
2018-12-04T00:30:39.782Z,956.46
2018-12-04T00:31:39.718Z,956.52
2018-12-04T00:32:39.655Z,956.47
2018-12-04T00:33:39.590Z,956.54
2018-12-04T00:34:39.529Z,956.48
2018-12-04T00:35:39.462Z,956.48
2018-12-04T00:36:39.400Z,956.50
2018-12-04T00:37:39.355Z,956.57
2018-12-04T00:38:39.281Z,956.52
2018-12-04T00:39:39.206Z,956.45
2018-12-04T00:40:39.156Z,956.45
2018-12-04T00:41:39.077Z,956.47
2018-12-04T00:42:39.013Z,956.47
2018-12-04T00:43:38.951Z,956.54
2018-12-04T00:44:38.888Z,956.53
2018-12-04T00:45:38.822Z,956.57
2018-12-04T00:46:38.759Z,956.49
2018-12-04T00:47:38.694Z,956.51
2018-12-04T00:48:38.639Z,956.56
2018-12-04T00:49:38.566Z,956.58
2018-12-04T00:50:38.505Z,956.59
2018-12-04T00:51:38.433Z,956.63
2018-12-04T00:52:38.376Z,956.68
2018-12-04T00:53:38.332Z,956.65
2018-12-04T00:54:38.248Z,956.69
2018-12-04T00:55:38.181Z,956.73
2018-12-04T00:56:38.119Z,956.74
2018-12-04T00:57:38.056Z,956.67
2018-12-04T00:58:37.990Z,956.69
2018-12-04T00:59:37.928Z,956.71
2018-12-04T01:00:37.872Z,956.72
2018-12-04T01:01:37.805Z,956.71
2018-12-04T01:02:37.751Z,956.68
2018-12-04T01:03:37.671Z,956.78
2018-12-04T01:04:37.626Z,956.73
2018-12-04T01:05:37.543Z,956.79
2018-12-04T01:06:37.494Z,956.89
2018-12-04T01:07:37.419Z,956.90
2018-12-04T01:08:37.353Z,956.95
2018-12-04T01:09:37.288Z,956.92
2018-12-04T01:10:37.226Z,956.95
2018-12-04T01:11:37.161Z,956.94
2018-12-04T01:12:37.102Z,956.98
2018-12-04T01:13:37.040Z,957.07
2018-12-04T01:14:36.976Z,957.03
2018-12-04T01:15:36.926Z,957.08
2018-12-04T01:16:36.859Z,957.14
2018-12-04T01:17:36.774Z,957.13
2018-12-04T01:18:36.716Z,957.19
2018-12-04T01:19:36.662Z,957.14
2018-12-04T01:20:36.590Z,957.17
2018-12-04T01:21:36.519Z,957.23
2018-12-04T01:22:36.457Z,957.16
2018-12-04T01:23:36.395Z,957.19
2018-12-04T01:24:36.329Z,957.16
2018-12-04T01:25:36.267Z,957.14
2018-12-04T01:26:36.203Z,957.21
2018-12-04T01:27:36.142Z,957.21
2018-12-04T01:28:36.074Z,957.12
2018-12-04T01:29:36.023Z,957.15
2018-12-04T01:30:35.942Z,957.20
2018-12-04T01:31:35.883Z,957.14
2018-12-04T01:32:35.818Z,957.13
2018-12-04T01:33:35.750Z,957.15
2018-12-04T01:34:35.689Z,957.16
2018-12-04T01:35:35.625Z,957.17
2018-12-04T01:36:35.592Z,957.19
2018-12-04T01:37:35.504Z,957.18
2018-12-04T01:38:35.438Z,957.24
2018-12-04T01:39:35.382Z,957.22
2018-12-04T01:40:35.307Z,957.23
2018-12-04T01:41:35.248Z,957.21
2018-12-04T01:42:35.206Z,957.14
2018-12-04T01:43:35.133Z,957.22
2018-12-04T01:44:35.052Z,957.27
2018-12-04T01:45:35.000Z,957.27
2018-12-04T01:46:34.922Z,957.29
2018-12-04T01:47:34.861Z,957.24
2018-12-04T01:48:34.796Z,957.29
2018-12-04T01:49:34.735Z,957.26
2018-12-04T01:50:34.709Z,957.26
2018-12-04T01:51:34.603Z,957.31
2018-12-04T01:52:34.538Z,957.28
2018-12-04T01:53:34.470Z,957.22
2018-12-04T01:54:34.428Z,957.27
2018-12-04T01:55:34.353Z,957.24
2018-12-04T01:56:34.281Z,957.27
2018-12-04T01:57:34.220Z,957.29
2018-12-04T01:58:34.177Z,957.24
2018-12-04T01:59:34.095Z,957.30
2018-12-04T02:00:34.027Z,957.24
2018-12-04T02:01:33.963Z,957.32
2018-12-04T02:02:33.916Z,957.28
2018-12-04T02:03:33.836Z,957.32
2018-12-04T02:04:33.772Z,957.34
2018-12-04T02:05:33.732Z,957.37
2018-12-04T02:06:33.643Z,957.35
2018-12-04T02:07:33.580Z,957.41
2018-12-04T02:08:33.520Z,957.44
2018-12-04T02:09:33.450Z,957.45
2018-12-04T02:10:33.387Z,957.49
2018-12-04T02:11:33.324Z,957.49
2018-12-04T02:12:33.261Z,957.52
2018-12-04T02:13:33.211Z,957.57
2018-12-04T02:14:33.151Z,957.59
2018-12-04T02:15:33.073Z,957.53
2018-12-04T02:16:33.009Z,957.57
2018-12-04T02:17:32.940Z,957.62
2018-12-04T02:18:32.890Z,957.58
2018-12-04T02:19:32.813Z,957.61
2018-12-04T02:20:32.752Z,957.73
2018-12-04T02:21:32.705Z,957.72
2018-12-04T02:22:32.620Z,957.71
2018-12-04T02:23:32.555Z,957.66
2018-12-04T02:24:32.521Z,957.70
2018-12-04T02:25:32.428Z,957.78
2018-12-04T02:26:32.365Z,957.74
2018-12-04T02:27:32.302Z,957.71
2018-12-04T02:28:32.249Z,957.75
2018-12-04T02:29:32.174Z,957.65
2018-12-04T02:30:32.115Z,957.50
2018-12-04T02:31:32.052Z,957.63
2018-12-04T02:32:31.982Z,957.62
2018-12-04T02:33:31.917Z,957.50
2018-12-04T02:34:31.866Z,957.59
2018-12-04T02:35:31.790Z,957.60
2018-12-04T02:36:31.727Z,957.55
2018-12-04T02:37:31.661Z,957.56
2018-12-04T02:38:31.609Z,957.53
2018-12-04T02:39:31.535Z,957.53
2018-12-04T02:40:31.470Z,957.54
2018-12-04T02:41:31.413Z,957.53
2018-12-04T02:42:31.345Z,957.54
2018-12-04T02:43:31.278Z,957.51
2018-12-04T02:44:31.218Z,957.63
2018-12-04T02:45:31.145Z,957.58
2018-12-04T02:46:31.107Z,957.62
2018-12-04T02:47:31.036Z,957.64
2018-12-04T02:48:30.955Z,957.60
2018-12-04T02:49:30.895Z,957.60
2018-12-04T02:50:30.829Z,957.64
2018-12-04T02:51:30.773Z,957.70
2018-12-04T02:52:30.703Z,957.66
2018-12-04T02:53:30.641Z,957.70
2018-12-04T02:54:30.580Z,957.67
2018-12-04T02:55:30.510Z,957.62
2018-12-04T02:56:30.453Z,957.66
2018-12-04T02:57:30.387Z,957.63
2018-12-04T02:58:30.314Z,957.63
2018-12-04T02:59:30.253Z,957.64
2018-12-04T03:00:30.202Z,957.60
2018-12-04T03:01:30.129Z,957.68
2018-12-04T03:02:30.062Z,957.67
2018-12-04T03:03:29.997Z,957.69
2018-12-04T03:04:29.933Z,957.72
2018-12-04T03:05:29.868Z,957.72
2018-12-04T03:06:29.808Z,957.67
2018-12-04T03:07:29.751Z,957.73
2018-12-04T03:08:29.681Z,957.73
2018-12-04T03:09:29.611Z,957.73
2018-12-04T03:10:29.562Z,957.70
2018-12-04T03:11:29.482Z,957.73
2018-12-04T03:12:29.421Z,957.74
2018-12-04T03:13:29.368Z,957.72
2018-12-04T03:14:29.290Z,957.67
2018-12-04T03:15:29.227Z,957.68
2018-12-04T03:16:29.164Z,957.68
2018-12-04T03:17:29.100Z,957.65
2018-12-04T03:18:29.036Z,957.72
2018-12-04T03:19:28.972Z,957.70
2018-12-04T03:20:28.902Z,957.72
2018-12-04T03:21:28.842Z,957.72
2018-12-04T03:22:28.788Z,957.67
2018-12-04T03:23:28.738Z,957.68
2018-12-04T03:24:28.650Z,957.72
2018-12-04T03:25:28.584Z,957.77
2018-12-04T03:26:28.520Z,957.75
2018-12-04T03:27:28.455Z,957.76
2018-12-04T03:28:28.393Z,957.78
2018-12-04T03:29:28.326Z,957.83
2018-12-04T03:30:28.273Z,957.89
2018-12-04T03:31:28.206Z,957.87
2018-12-04T03:32:28.154Z,957.92
2018-12-04T03:33:28.076Z,957.94
2018-12-04T03:34:28.003Z,957.96
2018-12-04T03:35:27.941Z,957.91
2018-12-04T03:36:27.880Z,957.96
2018-12-04T03:37:27.812Z,958.01
2018-12-04T03:38:27.749Z,958.02
2018-12-04T03:39:27.685Z,958.02
2018-12-04T03:40:27.620Z,957.97
2018-12-04T03:41:27.573Z,957.97
2018-12-04T03:42:27.493Z,958.00
2018-12-04T03:43:27.424Z,957.96
2018-12-04T03:44:27.385Z,958.02
2018-12-04T03:45:27.300Z,957.99
2018-12-04T03:46:27.253Z,958.02
2018-12-04T03:47:27.168Z,958.06
2018-12-04T03:48:27.108Z,958.07
2018-12-04T03:49:27.042Z,958.00
2018-12-04T03:50:26.977Z,958.04
2018-12-04T03:51:27.002Z,958.05
2018-12-04T03:52:26.852Z,958.00
2018-12-04T03:53:26.789Z,958.08
2018-12-04T03:54:26.727Z,958.09
2018-12-04T03:55:26.667Z,958.06
2018-12-04T03:56:26.607Z,958.12
2018-12-04T03:57:26.536Z,958.14
2018-12-04T03:58:26.462Z,958.19
2018-12-04T03:59:26.419Z,958.12
2018-12-04T04:00:26.333Z,958.15
2018-12-04T04:01:26.273Z,958.20
2018-12-04T04:02:26.205Z,958.22
2018-12-04T04:03:26.143Z,958.18
2018-12-04T04:04:26.080Z,958.24
2018-12-04T04:05:26.015Z,958.24
2018-12-04T04:06:25.962Z,958.18
2018-12-04T04:07:25.879Z,958.20
2018-12-04T04:08:25.819Z,958.26
2018-12-04T04:09:25.752Z,958.26
2018-12-04T04:10:25.690Z,958.34
2018-12-04T04:11:25.626Z,958.38
2018-12-04T04:12:25.566Z,958.31
2018-12-04T04:13:25.503Z,958.39
2018-12-04T04:14:25.435Z,958.47
2018-12-04T04:15:25.369Z,958.43
2018-12-04T04:16:25.302Z,958.46
2018-12-04T04:17:25.236Z,958.51
2018-12-04T04:18:25.175Z,958.54
2018-12-04T04:19:25.128Z,958.51
2018-12-04T04:20:25.048Z,958.55
2018-12-04T04:21:24.981Z,958.57
2018-12-04T04:22:24.919Z,958.55
2018-12-04T04:23:24.852Z,958.48
2018-12-04T04:24:24.789Z,958.55
2018-12-04T04:25:24.724Z,958.53
2018-12-04T04:26:24.661Z,958.51
2018-12-04T04:27:24.596Z,958.54
2018-12-04T04:28:24.530Z,958.56
2018-12-04T04:29:24.467Z,958.55
2018-12-04T04:30:24.399Z,958.52
2018-12-04T04:31:24.339Z,958.53
2018-12-04T04:32:24.274Z,958.48
2018-12-04T04:33:24.209Z,958.52
2018-12-04T04:34:24.144Z,958.51
2018-12-04T04:35:24.086Z,958.54
2018-12-04T04:36:24.025Z,958.54
2018-12-04T04:37:23.959Z,958.50
2018-12-04T04:38:23.894Z,958.58
2018-12-04T04:39:23.839Z,958.58
2018-12-04T04:40:23.756Z,958.62
2018-12-04T04:41:23.692Z,958.63
2018-12-04T04:42:23.655Z,958.64
2018-12-04T04:43:23.568Z,958.68
2018-12-04T04:44:23.502Z,958.65
2018-12-04T04:45:23.436Z,958.73
2018-12-04T04:46:23.369Z,958.68
2018-12-04T04:47:23.311Z,958.73
2018-12-04T04:48:23.242Z,958.74
2018-12-04T04:49:23.182Z,958.77
2018-12-04T04:50:23.111Z,958.76
2018-12-04T04:51:23.049Z,958.78
2018-12-04T04:52:22.986Z,958.80
2018-12-04T04:53:22.920Z,958.83
2018-12-04T04:54:22.855Z,958.85
2018-12-04T04:55:22.789Z,958.87
2018-12-04T04:56:22.739Z,958.83
2018-12-04T04:57:22.663Z,958.88
2018-12-04T04:58:22.600Z,958.88
2018-12-04T04:59:22.550Z,958.92
2018-12-04T05:00:22.491Z,958.90
2018-12-04T05:01:22.401Z,958.92
2018-12-04T05:02:22.338Z,958.95
2018-12-04T05:03:22.276Z,958.92
2018-12-04T05:04:22.209Z,958.90
2018-12-04T05:05:22.139Z,958.94
2018-12-04T05:06:22.076Z,958.90
2018-12-04T05:07:22.015Z,958.88
2018-12-04T05:08:21.952Z,958.93
2018-12-04T05:09:21.884Z,958.93
2018-12-04T05:10:21.817Z,958.95
2018-12-04T05:11:21.756Z,958.98
2018-12-04T05:12:21.707Z,958.97
2018-12-04T05:13:21.628Z,958.97
2018-12-04T05:14:21.565Z,958.97
2018-12-04T05:15:21.499Z,958.99
2018-12-04T05:16:21.436Z,959.00
2018-12-04T05:17:21.373Z,959.05
2018-12-04T05:18:21.314Z,959.03
2018-12-04T05:19:21.254Z,959.03
2018-12-04T05:20:21.170Z,959.02
2018-12-04T05:21:21.152Z,959.07
2018-12-04T05:22:21.060Z,959.10
2018-12-04T05:23:20.983Z,959.05
2018-12-04T05:24:20.917Z,959.13
2018-12-04T05:25:20.853Z,959.14
2018-12-04T05:26:20.789Z,959.18
2018-12-04T05:27:20.734Z,959.18
2018-12-04T05:28:20.661Z,959.23
2018-12-04T05:29:20.608Z,959.19
2018-12-04T05:30:20.537Z,959.27
2018-12-04T05:31:20.478Z,959.24
2018-12-04T05:32:20.399Z,959.23
2018-12-04T05:33:20.334Z,959.23
2018-12-04T05:34:20.272Z,959.23
2018-12-04T05:35:20.207Z,959.24
2018-12-04T05:36:20.147Z,959.18
2018-12-04T05:37:20.079Z,959.21
2018-12-04T05:38:20.030Z,959.22
2018-12-04T05:39:19.954Z,959.25
2018-12-04T05:40:20.406Z,959.28
2018-12-04T05:41:19.832Z,959.28
2018-12-04T05:42:19.754Z,959.30
2018-12-04T05:43:19.691Z,959.34
2018-12-04T05:44:19.626Z,959.37
2018-12-04T05:45:19.561Z,959.37
2018-12-04T05:46:19.495Z,959.40
2018-12-04T05:47:19.434Z,959.45
2018-12-04T05:48:19.391Z,959.55
2018-12-04T05:49:19.301Z,959.55
2018-12-04T05:50:19.238Z,959.51
2018-12-04T05:51:19.175Z,959.52
2018-12-04T05:52:19.110Z,959.56
2018-12-04T05:53:19.040Z,959.60
2018-12-04T05:54:18.979Z,959.63
2018-12-04T05:55:18.917Z,959.65
2018-12-04T05:56:19.322Z,959.61
2018-12-04T05:57:18.785Z,959.68
2018-12-04T05:58:18.735Z,959.67
2018-12-04T05:59:18.668Z,959.70
2018-12-04T06:00:18.599Z,959.66
2018-12-04T06:01:18.546Z,959.68
2018-12-04T06:02:18.518Z,959.67
2018-12-04T06:03:18.393Z,959.69
2018-12-04T06:04:18.333Z,959.68
2018-12-04T06:05:18.268Z,959.66
2018-12-04T06:06:18.206Z,959.70
2018-12-04T06:07:18.140Z,959.66
2018-12-04T06:08:18.075Z,959.75
2018-12-04T06:09:18.021Z,959.71
2018-12-04T06:10:17.946Z,959.74
2018-12-04T06:11:17.882Z,959.74
2018-12-04T06:12:17.829Z,959.75
2018-12-04T06:13:17.751Z,959.70
2018-12-04T06:14:17.686Z,959.73
2018-12-04T06:15:17.651Z,959.71
2018-12-04T06:16:17.558Z,959.69
2018-12-04T06:17:17.496Z,959.73
2018-12-04T06:18:17.442Z,959.76
2018-12-04T06:19:17.364Z,959.80
2018-12-04T06:20:17.301Z,959.80
2018-12-04T06:21:17.233Z,959.83
2018-12-04T06:22:17.171Z,959.84
2018-12-04T06:23:17.104Z,959.81
2018-12-04T06:24:17.043Z,959.84
2018-12-04T06:25:17.005Z,959.85
2018-12-04T06:26:16.913Z,959.80
2018-12-04T06:27:16.847Z,959.82
2018-12-04T06:28:16.784Z,959.89
2018-12-04T06:29:16.761Z,959.86
2018-12-04T06:30:16.655Z,959.85
2018-12-04T06:31:16.593Z,959.88
2018-12-04T06:32:16.530Z,959.87
2018-12-04T06:33:16.511Z,959.90
2018-12-04T06:34:16.395Z,959.89
2018-12-04T06:35:16.346Z,959.89
2018-12-04T06:36:16.266Z,959.93
2018-12-04T06:37:16.202Z,959.93
2018-12-04T06:38:16.136Z,959.95
2018-12-04T06:39:16.073Z,959.94
2018-12-04T06:40:16.008Z,959.96
2018-12-04T06:41:15.954Z,960.04
2018-12-04T06:42:15.881Z,960.02
2018-12-04T06:43:15.816Z,960.00
2018-12-04T06:44:15.754Z,960.00
2018-12-04T06:45:15.704Z,959.99
2018-12-04T06:46:15.619Z,960.02
2018-12-04T06:47:15.557Z,960.02
2018-12-04T06:48:15.492Z,960.04
2018-12-04T06:49:15.426Z,960.06
2018-12-04T06:50:15.361Z,960.01
2018-12-04T06:51:15.297Z,960.02
2018-12-04T06:52:15.233Z,960.04
2018-12-04T06:53:15.168Z,960.02
2018-12-04T06:54:15.118Z,960.02
2018-12-04T06:55:15.059Z,960.10
2018-12-04T06:56:15.214Z,960.11
2018-12-04T06:57:14.913Z,960.10
2018-12-04T06:58:14.844Z,960.16
2018-12-04T06:59:14.780Z,960.19
2018-12-04T07:00:14.716Z,960.17
2018-12-04T07:01:14.654Z,960.17
2018-12-04T07:02:14.589Z,960.21
2018-12-04T07:03:14.523Z,960.21
2018-12-04T07:04:14.463Z,960.23
2018-12-04T07:05:14.445Z,960.28
2018-12-04T07:06:14.328Z,960.28
2018-12-04T07:07:14.262Z,960.35
2018-12-04T07:08:14.211Z,960.36
2018-12-04T07:09:14.135Z,960.35
2018-12-04T07:10:14.070Z,960.35
2018-12-04T07:11:14.003Z,960.37
2018-12-04T07:12:13.942Z,960.40
2018-12-04T07:13:13.883Z,960.38
2018-12-04T07:14:13.828Z,960.45
2018-12-04T07:15:13.762Z,960.41
2018-12-04T07:16:13.678Z,960.45
2018-12-04T07:17:13.615Z,960.48
2018-12-04T07:18:13.554Z,960.52
2018-12-04T07:19:13.489Z,960.60
2018-12-04T07:20:13.424Z,960.65
2018-12-04T07:21:13.358Z,960.66
2018-12-04T07:22:13.294Z,960.69
2018-12-04T07:23:13.239Z,960.72
2018-12-04T07:24:13.173Z,960.75
2018-12-04T07:25:13.116Z,960.68
2018-12-04T07:26:13.033Z,960.70
2018-12-04T07:27:12.972Z,960.77
2018-12-04T07:28:12.907Z,960.77
2018-12-04T07:29:12.842Z,960.81
2018-12-04T07:30:12.777Z,960.86
2018-12-04T07:31:12.713Z,960.89
2018-12-04T07:32:12.656Z,960.93
2018-12-04T07:33:12.590Z,960.94
2018-12-04T07:34:12.521Z,960.98
2018-12-04T07:35:12.471Z,961.07
2018-12-04T07:36:12.411Z,961.08
2018-12-04T07:37:12.324Z,961.07
2018-12-04T07:38:12.277Z,961.12
2018-12-04T07:39:12.195Z,961.11
2018-12-04T07:40:12.133Z,961.22
2018-12-04T07:41:12.066Z,961.16
2018-12-04T07:42:12.005Z,961.21
2018-12-04T07:43:11.941Z,961.20
2018-12-04T07:44:11.874Z,961.20
2018-12-04T07:45:11.830Z,961.20
2018-12-04T07:46:11.740Z,961.26
2018-12-04T07:47:11.681Z,961.31
2018-12-04T07:48:12.298Z,961.30
2018-12-04T07:49:11.550Z,961.38
2018-12-04T07:50:11.486Z,961.37
2018-12-04T07:51:11.419Z,961.39
2018-12-04T07:52:11.359Z,961.37
2018-12-04T07:53:11.298Z,961.38
2018-12-04T07:54:11.230Z,961.47
2018-12-04T07:55:11.174Z,961.41
2018-12-04T07:56:11.096Z,961.49
2018-12-04T07:57:11.045Z,961.56
2018-12-04T07:58:10.980Z,961.58
2018-12-04T07:59:10.906Z,961.60
2018-12-04T08:00:10.840Z,961.64
2018-12-04T08:01:10.780Z,961.75
2018-12-04T08:02:10.724Z,961.77
2018-12-04T08:03:10.648Z,961.76
2018-12-04T08:04:10.584Z,961.75
2018-12-04T08:05:10.527Z,961.86
2018-12-04T08:06:10.456Z,961.85
2018-12-04T08:07:10.398Z,961.89
2018-12-04T08:08:10.325Z,961.87
2018-12-04T08:09:10.258Z,961.93
2018-12-04T08:10:10.199Z,961.95
2018-12-04T08:11:10.135Z,961.95
2018-12-04T08:12:10.068Z,961.97
2018-12-04T08:13:10.002Z,961.93
2018-12-04T08:14:09.939Z,961.93
2018-12-04T08:15:09.876Z,961.95
2018-12-04T08:16:09.817Z,961.98
2018-12-04T08:17:09.754Z,962.03
2018-12-04T08:18:09.688Z,962.05
2018-12-04T08:19:09.620Z,962.06
2018-12-04T08:20:09.553Z,962.08
2018-12-04T08:21:09.514Z,962.10
2018-12-04T08:22:09.429Z,962.13
2018-12-04T08:23:09.361Z,962.17
2018-12-04T08:24:09.296Z,962.19
2018-12-04T08:25:09.231Z,962.19
2018-12-04T08:26:09.168Z,962.29
2018-12-04T08:27:09.104Z,962.34
2018-12-04T08:28:09.050Z,962.37
2018-12-04T08:29:08.971Z,962.33
2018-12-04T08:30:08.912Z,962.39
2018-12-04T08:31:08.859Z,962.37
2018-12-04T08:32:09.915Z,962.44
2018-12-04T08:33:08.747Z,962.43
2018-12-04T08:34:08.665Z,962.46
2018-12-04T08:35:08.596Z,962.46
2018-12-04T08:36:08.546Z,962.51
2018-12-04T08:37:08.461Z,962.54
2018-12-04T08:38:08.404Z,962.58
2018-12-04T08:39:13.105Z,962.57
2018-12-04T08:40:08.268Z,962.58
2018-12-04T08:41:08.199Z,962.64
2018-12-04T08:42:08.139Z,962.62
2018-12-04T08:43:08.076Z,962.62
2018-12-04T08:44:08.013Z,962.67
2018-12-04T08:45:07.946Z,962.69
2018-12-04T08:46:07.883Z,962.65
2018-12-04T08:47:07.820Z,962.71
2018-12-04T08:48:07.756Z,962.67
2018-12-04T08:49:07.687Z,962.64
2018-12-04T08:50:07.628Z,962.68
2018-12-04T08:51:07.589Z,962.75
2018-12-04T08:52:07.499Z,962.81
2018-12-04T08:53:07.435Z,962.83
2018-12-04T08:54:07.371Z,962.80
2018-12-04T08:55:07.304Z,962.81
2018-12-04T08:56:07.244Z,962.77
2018-12-04T08:57:07.176Z,962.84
2018-12-04T08:58:07.112Z,962.82
2018-12-04T08:59:07.048Z,962.87
2018-12-04T09:00:06.992Z,962.91
2018-12-04T09:01:06.923Z,962.92
2018-12-04T09:02:06.856Z,962.94
2018-12-04T09:03:06.792Z,963.00
2018-12-04T09:04:06.729Z,963.02
2018-12-04T09:05:06.669Z,963.01
2018-12-04T09:06:06.599Z,963.06
2018-12-04T09:07:06.637Z,963.08
2018-12-04T09:08:09.381Z,963.13
2018-12-04T09:09:06.405Z,963.12
2018-12-04T09:10:06.340Z,963.10
2018-12-04T09:11:06.291Z,963.14
2018-12-04T09:12:06.213Z,963.22
2018-12-04T09:13:06.148Z,963.21
2018-12-04T09:14:06.117Z,963.22
2018-12-04T09:15:06.021Z,963.29
2018-12-04T09:16:05.956Z,963.32
2018-12-04T09:17:05.891Z,963.34
2018-12-04T09:18:05.827Z,963.34
2018-12-04T09:19:05.786Z,963.34
2018-12-04T09:20:05.728Z,963.34
2018-12-04T09:21:05.640Z,963.36
2018-12-04T09:22:05.614Z,963.37
2018-12-04T09:23:05.555Z,963.41
2018-12-04T09:24:05.501Z,963.42
2018-12-04T09:25:05.460Z,963.53
2018-12-04T09:26:05.313Z,963.55
2018-12-04T09:27:05.820Z,963.55
2018-12-04T09:28:05.228Z,963.55
2018-12-04T09:29:05.271Z,963.59
2018-12-04T09:30:05.056Z,963.58
2018-12-04T09:31:04.990Z,963.59
2018-12-04T09:32:04.928Z,963.56
2018-12-04T09:33:04.862Z,963.62
2018-12-04T09:34:04.800Z,963.66
2018-12-04T09:35:04.734Z,963.69
2018-12-04T09:36:04.672Z,963.75
2018-12-04T09:37:04.606Z,963.73
2018-12-04T09:38:04.547Z,963.72
2018-12-04T09:39:04.480Z,963.74
2018-12-04T09:40:04.413Z,963.74
2018-12-04T09:41:04.349Z,963.77
2018-12-04T09:42:04.321Z,963.73
2018-12-04T09:43:04.373Z,963.72
2018-12-04T09:44:04.157Z,963.72
2018-12-04T09:45:04.090Z,963.74
2018-12-04T09:46:04.025Z,963.76
2018-12-04T09:47:03.967Z,963.72
2018-12-04T09:48:03.899Z,963.76
2018-12-04T09:49:03.834Z,963.77
2018-12-04T09:50:03.772Z,963.82
2018-12-04T09:51:03.707Z,963.83
2018-12-04T09:52:03.641Z,963.82
2018-12-04T09:53:03.577Z,963.81
2018-12-04T09:54:03.514Z,963.77
2018-12-04T09:55:03.448Z,963.80
2018-12-04T09:56:03.384Z,963.75
2018-12-04T09:57:03.317Z,963.79
2018-12-04T09:58:03.254Z,963.80
2018-12-04T09:59:03.222Z,963.80
2018-12-04T10:00:03.185Z,963.78
2018-12-04T10:01:03.061Z,963.76
2018-12-04T10:02:02.997Z,963.73
2018-12-04T10:03:02.935Z,963.72
2018-12-04T10:04:02.869Z,963.74
2018-12-04T10:05:02.806Z,963.72
2018-12-04T10:06:02.740Z,963.77
2018-12-04T10:07:02.679Z,963.76
2018-12-04T10:08:02.612Z,963.72
2018-12-04T10:09:02.597Z,963.66
2018-12-04T10:10:02.484Z,963.63
2018-12-04T10:11:02.420Z,963.62
2018-12-04T10:12:02.357Z,963.61
2018-12-04T10:13:02.305Z,963.63
2018-12-04T10:14:02.229Z,963.65
2018-12-04T10:15:02.190Z,963.70
2018-12-04T10:16:02.098Z,963.66
2018-12-04T10:17:02.035Z,963.72
2018-12-04T10:18:01.971Z,963.72
2018-12-04T10:19:01.907Z,963.69
2018-12-04T10:20:01.843Z,963.74
2018-12-04T10:21:01.787Z,963.72
2018-12-04T10:22:01.722Z,963.78
2018-12-04T10:23:01.649Z,963.75
2018-12-04T10:24:01.594Z,963.79
2018-12-04T10:25:01.523Z,963.75
2018-12-04T10:26:01.457Z,963.82
2018-12-04T10:27:01.398Z,963.88
2018-12-04T10:28:01.332Z,963.87
2018-12-04T10:29:01.273Z,963.96
2018-12-04T10:30:01.208Z,963.97
2018-12-04T10:31:01.136Z,963.96
2018-12-04T10:32:01.076Z,963.99
2018-12-04T10:33:01.020Z,964.01
2018-12-04T10:34:00.943Z,964.03
2018-12-04T10:35:00.882Z,964.06
2018-12-04T10:36:00.819Z,964.07
2018-12-04T10:37:00.755Z,964.00
2018-12-04T10:38:00.691Z,964.05
2018-12-04T10:39:00.626Z,964.06
2018-12-04T10:40:00.559Z,964.08
2018-12-04T10:41:00.498Z,964.07
2018-12-04T10:42:00.447Z,964.05
2018-12-04T10:43:00.373Z,964.15
2018-12-04T10:44:00.304Z,964.10
2018-12-04T10:45:00.243Z,964.05
2018-12-04T10:46:00.179Z,964.03
2018-12-04T10:47:00.116Z,964.03
2018-12-04T10:48:00.052Z,964.12
2018-12-04T10:48:59.986Z,964.07
2018-12-04T10:49:59.923Z,964.07
2018-12-04T10:50:59.870Z,964.11
2018-12-04T10:51:59.795Z,964.17
2018-12-04T10:52:59.731Z,964.08
2018-12-04T10:53:59.672Z,964.14
2018-12-04T10:54:59.602Z,964.18
2018-12-04T10:55:59.587Z,964.15
2018-12-04T10:56:59.474Z,964.13
2018-12-04T10:57:59.411Z,964.13
2018-12-04T10:58:59.363Z,964.13
2018-12-04T10:59:59.424Z,964.15
2018-12-04T11:00:59.262Z,964.19
2018-12-04T11:01:59.198Z,964.16
2018-12-04T11:02:59.102Z,964.16
2018-12-04T11:03:59.026Z,964.16
2018-12-04T11:04:58.960Z,964.16
2018-12-04T11:05:58.896Z,964.21
2018-12-04T11:06:58.829Z,964.24
2018-12-04T11:07:58.769Z,964.22
2018-12-04T11:08:58.706Z,964.26
2018-12-04T11:09:58.642Z,964.26
2018-12-04T11:10:58.577Z,964.25
2018-12-04T11:11:58.536Z,964.33
2018-12-04T11:12:58.448Z,964.34
2018-12-04T11:13:58.383Z,964.40
2018-12-04T11:14:58.319Z,964.38
2018-12-04T11:15:58.260Z,964.43
2018-12-04T11:16:58.191Z,964.44
2018-12-04T11:17:58.128Z,964.47
2018-12-04T11:18:58.066Z,964.39
2018-12-04T11:19:57.999Z,964.46
2018-12-04T11:20:57.934Z,964.50
2018-12-04T11:21:57.869Z,964.42
2018-12-04T11:22:57.803Z,964.41
2018-12-04T11:23:57.743Z,964.42
2018-12-04T11:24:57.677Z,964.53
2018-12-04T11:25:57.614Z,964.50
2018-12-04T11:26:57.552Z,964.56
2018-12-04T11:27:57.485Z,964.57
2018-12-04T11:28:57.421Z,964.46
2018-12-04T11:29:57.357Z,964.46
2018-12-04T11:30:57.294Z,964.48
2018-12-04T11:31:57.231Z,964.47
2018-12-04T11:32:57.165Z,964.49
2018-12-04T11:33:57.100Z,964.55
2018-12-04T11:34:57.086Z,964.52
2018-12-04T11:35:56.973Z,964.55
2018-12-04T11:36:56.907Z,964.47
2018-12-04T11:37:56.846Z,964.43
2018-12-04T11:38:56.784Z,964.50
2018-12-04T11:39:56.730Z,964.54
2018-12-04T11:40:56.651Z,964.51
2018-12-04T11:41:56.588Z,964.52
2018-12-04T11:42:56.524Z,964.55
2018-12-04T11:43:56.462Z,964.53
2018-12-04T11:44:56.394Z,964.58
2018-12-04T11:45:56.332Z,964.55
2018-12-04T11:46:56.266Z,964.62
2018-12-04T11:47:56.216Z,964.69
2018-12-04T11:48:56.134Z,964.62
2018-12-04T11:49:56.070Z,964.59
2018-12-04T11:51:00.196Z,964.60
2018-12-04T11:51:55.946Z,964.54
2018-12-04T11:52:55.881Z,964.66
2018-12-04T11:53:55.815Z,964.65
2018-12-04T11:54:55.761Z,964.65
2018-12-04T11:55:55.689Z,964.67
2018-12-04T11:56:55.637Z,964.65
2018-12-04T11:57:55.560Z,964.71
2018-12-04T11:58:55.496Z,964.75
2018-12-04T11:59:55.432Z,964.84
2018-12-04T12:00:55.368Z,964.73
2018-12-04T12:01:55.302Z,964.77
2018-12-04T12:02:55.238Z,964.87
2018-12-04T12:03:55.176Z,964.82
2018-12-04T12:04:55.110Z,964.85
2018-12-04T12:05:55.049Z,964.85
2018-12-04T12:06:54.982Z,964.82
2018-12-04T12:07:54.917Z,964.90
2018-12-04T12:08:54.850Z,964.94
2018-12-04T12:09:54.790Z,964.93
2018-12-04T12:10:54.722Z,964.93
2018-12-04T12:11:54.660Z,964.95
2018-12-04T12:12:54.596Z,964.92
2018-12-04T12:13:54.536Z,964.90
2018-12-04T12:14:54.467Z,964.93
2018-12-04T12:15:54.404Z,964.98
2018-12-04T12:16:54.337Z,964.99
2018-12-04T12:17:54.279Z,964.92
2018-12-04T12:18:54.211Z,964.91
2018-12-04T12:19:54.146Z,964.89
2018-12-04T12:20:54.081Z,964.90
2018-12-04T12:21:54.019Z,964.89
2018-12-04T12:22:53.958Z,965.00
2018-12-04T12:23:53.894Z,964.97
2018-12-04T12:24:53.824Z,964.96
2018-12-04T12:25:53.761Z,964.95
2018-12-04T12:26:53.697Z,964.93
2018-12-04T12:27:53.633Z,964.99